sensor_id;sensor_type;location;lat;lon;timestamp;P1;durP1;ratioP1;P2;durP2;ratioP2
5646;SDS011;2845;48.626;9.362;2023-09-12T00:01:09;6.07;;;3.40;;
5646;SDS011;2845;48.626;9.362;2023-09-12T00:03:43;4.50;;;2.40;;
5646;SDS011;2845;48.626;9.362;2023-09-12T00:06:19;4.20;;;3.00;;
5646;SDS011;2845;48.626;9.362;2023-09-12T00:08:53;4.75;;;2.67;;
5646;SDS011;2845;48.626;9.362;2023-09-12T00:11:28;6.63;;;2.80;;
5646;SDS011;2845;48.626;9.362;2023-09-12T00:14:02;6.13;;;2.67;;
5646;SDS011;2845;48.626;9.362;2023-09-12T00:16:37;5.82;;;2.85;;
5646;SDS011;2845;48.626;9.362;2023-09-12T00:19:12;7.70;;;3.55;;
5646;SDS011;2845;48.626;9.362;2023-09-12T00:21:48;5.32;;;3.08;;
5646;SDS011;2845;48.626;9.362;2023-09-12T00:24:21;5.53;;;3.10;;
5646;SDS011;2845;48.626;9.362;2023-09-12T00:26:59;6.47;;;3.15;;
5646;SDS011;2845;48.626;9.362;2023-09-12T00:29:33;6.45;;;2.50;;
5646;SDS011;2845;48.626;9.362;2023-09-12T00:32:08;5.72;;;3.42;;
5646;SDS011;2845;48.626;9.362;2023-09-12T00:34:42;5.10;;;2.97;;
5646;SDS011;2845;48.626;9.362;2023-09-12T00:37:18;5.82;;;3.00;;
5646;SDS011;2845;48.626;9.362;2023-09-12T00:39:53;5.65;;;2.85;;
5646;SDS011;2845;48.626;9.362;2023-09-12T00:42:27;5.80;;;3.13;;
5646;SDS011;2845;48.626;9.362;2023-09-12T00:45:02;5.85;;;2.85;;
5646;SDS011;2845;48.626;9.362;2023-09-12T00:47:37;5.20;;;2.85;;
5646;SDS011;2845;48.626;9.362;2023-09-12T00:50:11;8.15;;;3.25;;
5646;SDS011;2845;48.626;9.362;2023-09-12T00:52:49;5.88;;;2.85;;
5646;SDS011;2845;48.626;9.362;2023-09-12T00:55:23;5.50;;;3.20;;
5646;SDS011;2845;48.626;9.362;2023-09-12T00:58:00;6.30;;;3.03;;
5646;SDS011;2845;48.626;9.362;2023-09-12T01:00:35;6.00;;;3.35;;
5646;SDS011;2845;48.626;9.362;2023-09-12T01:03:12;6.72;;;3.38;;
5646;SDS011;2845;48.626;9.362;2023-09-12T01:08:30;6.00;;;3.35;;
5646;SDS011;2845;48.626;9.362;2023-09-12T01:11:04;7.20;;;3.50;;
5646;SDS011;2845;48.626;9.362;2023-09-12T01:13:39;5.80;;;3.10;;
5646;SDS011;2845;48.626;9.362;2023-09-12T01:16:13;6.13;;;2.80;;
5646;SDS011;2845;48.626;9.362;2023-09-12T01:18:48;6.68;;;3.58;;
5646;SDS011;2845;48.626;9.362;2023-09-12T01:21:37;6.35;;;3.45;;
5646;SDS011;2845;48.626;9.362;2023-09-12T01:27:44;6.00;;;3.20;;
5646;SDS011;2845;48.626;9.362;2023-09-12T01:30:21;8.85;;;3.20;;
5646;SDS011;2845;48.626;9.362;2023-09-12T01:32:59;5.95;;;3.35;;
5646;SDS011;2845;48.626;9.362;2023-09-12T01:35:34;5.70;;;3.15;;
5646;SDS011;2845;48.626;9.362;2023-09-12T01:38:09;7.22;;;2.70;;
5646;SDS011;2845;48.626;9.362;2023-09-12T01:40:46;7.07;;;2.90;;
5646;SDS011;2845;48.626;9.362;2023-09-12T01:43:25;7.07;;;4.30;;
5646;SDS011;2845;48.626;9.362;2023-09-12T01:46:04;5.72;;;3.13;;
5646;SDS011;2845;48.626;9.362;2023-09-12T01:48:38;6.22;;;2.95;;
5646;SDS011;2845;48.626;9.362;2023-09-12T01:51:14;6.75;;;3.50;;
5646;SDS011;2845;48.626;9.362;2023-09-12T01:53:49;6.82;;;3.28;;
5646;SDS011;2845;48.626;9.362;2023-09-12T01:56:24;6.53;;;3.20;;
5646;SDS011;2845;48.626;9.362;2023-09-12T01:59:02;5.28;;;2.88;;
5646;SDS011;2845;48.626;9.362;2023-09-12T02:01:37;7.10;;;3.60;;
5646;SDS011;2845;48.626;9.362;2023-09-12T02:04:11;6.65;;;3.58;;
5646;SDS011;2845;48.626;9.362;2023-09-12T02:06:45;5.95;;;3.22;;
5646;SDS011;2845;48.626;9.362;2023-09-12T02:09:20;6.00;;;3.33;;
5646;SDS011;2845;48.626;9.362;2023-09-12T02:11:54;11.05;;;3.42;;
5646;SDS011;2845;48.626;9.362;2023-09-12T02:14:31;5.75;;;3.08;;
5646;SDS011;2845;48.626;9.362;2023-09-12T02:17:05;4.57;;;2.90;;
5646;SDS011;2845;48.626;9.362;2023-09-12T02:19:42;5.97;;;3.00;;
5646;SDS011;2845;48.626;9.362;2023-09-12T02:22:16;5.93;;;3.35;;
5646;SDS011;2845;48.626;9.362;2023-09-12T02:24:50;7.50;;;3.10;;
5646;SDS011;2845;48.626;9.362;2023-09-12T02:27:25;7.25;;;3.38;;
5646;SDS011;2845;48.626;9.362;2023-09-12T02:30:01;6.75;;;3.97;;
5646;SDS011;2845;48.626;9.362;2023-09-12T02:32:36;5.97;;;3.40;;
5646;SDS011;2845;48.626;9.362;2023-09-12T02:35:11;7.10;;;3.20;;
5646;SDS011;2845;48.626;9.362;2023-09-12T02:37:46;6.57;;;2.97;;
5646;SDS011;2845;48.626;9.362;2023-09-12T02:40:20;7.43;;;3.30;;
5646;SDS011;2845;48.626;9.362;2023-09-12T02:42:55;6.05;;;3.03;;
5646;SDS011;2845;48.626;9.362;2023-09-12T02:45:30;5.47;;;3.15;;
5646;SDS011;2845;48.626;9.362;2023-09-12T02:48:05;5.72;;;3.63;;
5646;SDS011;2845;48.626;9.362;2023-09-12T02:50:40;8.43;;;3.70;;
5646;SDS011;2845;48.626;9.362;2023-09-12T02:53:14;6.65;;;3.50;;
5646;SDS011;2845;48.626;9.362;2023-09-12T02:55:51;5.63;;;3.30;;
5646;SDS011;2845;48.626;9.362;2023-09-12T02:58:28;6.78;;;3.40;;
5646;SDS011;2845;48.626;9.362;2023-09-12T03:01:04;7.05;;;4.03;;
5646;SDS011;2845;48.626;9.362;2023-09-12T03:03:39;8.07;;;3.15;;
5646;SDS011;2845;48.626;9.362;2023-09-12T03:06:13;4.78;;;2.63;;
5646;SDS011;2845;48.626;9.362;2023-09-12T03:08:48;9.98;;;3.55;;
5646;SDS011;2845;48.626;9.362;2023-09-12T03:11:25;5.55;;;3.17;;
5646;SDS011;2845;48.626;9.362;2023-09-12T03:14:01;7.10;;;3.70;;
5646;SDS011;2845;48.626;9.362;2023-09-12T03:16:39;7.95;;;3.88;;
5646;SDS011;2845;48.626;9.362;2023-09-12T03:19:13;6.93;;;3.70;;
5646;SDS011;2845;48.626;9.362;2023-09-12T03:21:47;8.10;;;3.30;;
5646;SDS011;2845;48.626;9.362;2023-09-12T03:24:22;8.48;;;3.30;;
5646;SDS011;2845;48.626;9.362;2023-09-12T03:26:57;6.20;;;2.88;;
5646;SDS011;2845;48.626;9.362;2023-09-12T03:29:31;7.20;;;3.65;;
5646;SDS011;2845;48.626;9.362;2023-09-12T03:32:07;7.22;;;3.53;;
5646;SDS011;2845;48.626;9.362;2023-09-12T03:34:42;7.38;;;3.22;;
5646;SDS011;2845;48.626;9.362;2023-09-12T03:37:17;5.32;;;3.42;;
5646;SDS011;2845;48.626;9.362;2023-09-12T03:39:51;6.15;;;2.97;;
5646;SDS011;2845;48.626;9.362;2023-09-12T03:42:26;7.35;;;3.17;;
5646;SDS011;2845;48.626;9.362;2023-09-12T03:45:16;6.45;;;3.28;;
5646;SDS011;2845;48.626;9.362;2023-09-12T03:47:52;5.88;;;3.58;;
5646;SDS011;2845;48.626;9.362;2023-09-12T03:50:26;5.80;;;3.05;;
5646;SDS011;2845;48.626;9.362;2023-09-12T03:53:04;5.75;;;3.35;;
5646;SDS011;2845;48.626;9.362;2023-09-12T03:55:38;4.90;;;2.83;;
5646;SDS011;2845;48.626;9.362;2023-09-12T03:58:13;6.65;;;3.50;;
5646;SDS011;2845;48.626;9.362;2023-09-12T04:00:47;6.88;;;3.58;;
5646;SDS011;2845;48.626;9.362;2023-09-12T04:03:23;7.15;;;4.15;;
5646;SDS011;2845;48.626;9.362;2023-09-12T04:05:58;6.30;;;3.05;;
5646;SDS011;2845;48.626;9.362;2023-09-12T04:08:32;6.10;;;3.65;;
5646;SDS011;2845;48.626;9.362;2023-09-12T04:11:07;6.30;;;3.78;;
5646;SDS011;2845;48.626;9.362;2023-09-12T04:13:42;7.82;;;3.47;;
5646;SDS011;2845;48.626;9.362;2023-09-12T04:16:21;8.05;;;3.50;;
5646;SDS011;2845;48.626;9.362;2023-09-12T04:18:58;6.85;;;3.45;;
5646;SDS011;2845;48.626;9.362;2023-09-12T04:21:32;5.72;;;3.22;;
5646;SDS011;2845;48.626;9.362;2023-09-12T04:24:07;7.13;;;3.15;;
5646;SDS011;2845;48.626;9.362;2023-09-12T04:26:42;7.35;;;3.50;;
5646;SDS011;2845;48.626;9.362;2023-09-12T04:29:16;6.28;;;3.05;;
5646;SDS011;2845;48.626;9.362;2023-09-12T04:31:51;6.90;;;3.60;;
5646;SDS011;2845;48.626;9.362;2023-09-12T04:34:33;4.53;;;3.30;;
5646;SDS011;2845;48.626;9.362;2023-09-12T04:37:07;6.28;;;3.45;;
5646;SDS011;2845;48.626;9.362;2023-09-12T04:39:42;7.22;;;3.78;;
5646;SDS011;2845;48.626;9.362;2023-09-12T04:42:16;7.78;;;3.78;;
5646;SDS011;2845;48.626;9.362;2023-09-12T04:44:53;7.43;;;3.55;;
5646;SDS011;2845;48.626;9.362;2023-09-12T04:47:27;7.22;;;3.65;;
5646;SDS011;2845;48.626;9.362;2023-09-12T04:50:07;6.57;;;3.50;;
5646;SDS011;2845;48.626;9.362;2023-09-12T04:52:43;6.15;;;3.05;;
5646;SDS011;2845;48.626;9.362;2023-09-12T04:55:18;4.70;;;2.88;;
5646;SDS011;2845;48.626;9.362;2023-09-12T04:57:52;5.78;;;3.50;;
5646;SDS011;2845;48.626;9.362;2023-09-12T05:00:27;7.55;;;3.88;;
5646;SDS011;2845;48.626;9.362;2023-09-12T05:03:01;6.18;;;3.42;;
5646;SDS011;2845;48.626;9.362;2023-09-12T05:05:40;5.60;;;2.95;;
5646;SDS011;2845;48.626;9.362;2023-09-12T05:08:14;6.38;;;2.95;;
5646;SDS011;2845;48.626;9.362;2023-09-12T05:10:48;6.68;;;3.60;;
5646;SDS011;2845;48.626;9.362;2023-09-12T05:13:23;4.90;;;3.20;;
5646;SDS011;2845;48.626;9.362;2023-09-12T05:15:57;5.72;;;2.67;;
5646;SDS011;2845;48.626;9.362;2023-09-12T05:18:32;5.50;;;3.30;;
5646;SDS011;2845;48.626;9.362;2023-09-12T05:21:07;5.50;;;2.78;;
5646;SDS011;2845;48.626;9.362;2023-09-12T05:23:42;8.13;;;3.40;;
5646;SDS011;2845;48.626;9.362;2023-09-12T05:26:16;7.10;;;3.53;;
5646;SDS011;2845;48.626;9.362;2023-09-12T05:28:50;7.90;;;3.90;;
5646;SDS011;2845;48.626;9.362;2023-09-12T05:31:26;6.25;;;3.20;;
5646;SDS011;2845;48.626;9.362;2023-09-12T05:34:00;8.80;;;3.88;;
5646;SDS011;2845;48.626;9.362;2023-09-12T05:36:36;7.25;;;3.45;;
5646;SDS011;2845;48.626;9.362;2023-09-12T05:39:10;6.00;;;3.30;;
5646;SDS011;2845;48.626;9.362;2023-09-12T05:41:46;7.38;;;3.67;;
5646;SDS011;2845;48.626;9.362;2023-09-12T05:44:20;8.07;;;3.63;;
5646;SDS011;2845;48.626;9.362;2023-09-12T05:46:54;7.47;;;3.70;;
5646;SDS011;2845;48.626;9.362;2023-09-12T05:49:28;5.43;;;2.95;;
5646;SDS011;2845;48.626;9.362;2023-09-12T05:52:08;5.18;;;3.05;;
5646;SDS011;2845;48.626;9.362;2023-09-12T05:54:43;6.55;;;3.35;;
5646;SDS011;2845;48.626;9.362;2023-09-12T05:57:18;6.53;;;3.50;;
5646;SDS011;2845;48.626;9.362;2023-09-12T05:59:53;4.70;;;2.92;;
5646;SDS011;2845;48.626;9.362;2023-09-12T06:02:27;6.32;;;3.95;;
5646;SDS011;2845;48.626;9.362;2023-09-12T06:05:05;7.40;;;3.85;;
5646;SDS011;2845;48.626;9.362;2023-09-12T06:07:42;6.68;;;2.95;;
5646;SDS011;2845;48.626;9.362;2023-09-12T06:10:19;4.93;;;2.88;;
5646;SDS011;2845;48.626;9.362;2023-09-12T06:12:54;5.10;;;2.78;;
5646;SDS011;2845;48.626;9.362;2023-09-12T06:15:29;5.15;;;2.92;;
5646;SDS011;2845;48.626;9.362;2023-09-12T06:18:06;5.97;;;3.42;;
5646;SDS011;2845;48.626;9.362;2023-09-12T06:20:41;6.22;;;3.30;;
5646;SDS011;2845;48.626;9.362;2023-09-12T06:23:17;6.38;;;3.28;;
5646;SDS011;2845;48.626;9.362;2023-09-12T06:25:52;6.00;;;3.42;;
5646;SDS011;2845;48.626;9.362;2023-09-12T06:28:27;5.97;;;3.15;;
5646;SDS011;2845;48.626;9.362;2023-09-12T06:31:07;6.82;;;3.53;;
5646;SDS011;2845;48.626;9.362;2023-09-12T06:33:42;6.00;;;3.17;;
5646;SDS011;2845;48.626;9.362;2023-09-12T06:36:16;6.60;;;3.08;;
5646;SDS011;2845;48.626;9.362;2023-09-12T06:38:52;7.15;;;3.55;;
5646;SDS011;2845;48.626;9.362;2023-09-12T06:41:26;7.18;;;3.67;;
5646;SDS011;2845;48.626;9.362;2023-09-12T06:44:04;6.70;;;3.60;;
5646;SDS011;2845;48.626;9.362;2023-09-12T06:46:39;6.70;;;3.60;;
5646;SDS011;2845;48.626;9.362;2023-09-12T06:49:14;5.45;;;3.33;;
5646;SDS011;2845;48.626;9.362;2023-09-12T06:51:48;7.72;;;3.88;;
5646;SDS011;2845;48.626;9.362;2023-09-12T06:54:24;8.88;;;3.45;;
5646;SDS011;2845;48.626;9.362;2023-09-12T06:56:58;7.38;;;3.47;;
5646;SDS011;2845;48.626;9.362;2023-09-12T06:59:32;6.13;;;3.63;;
5646;SDS011;2845;48.626;9.362;2023-09-12T07:02:09;7.72;;;3.55;;
5646;SDS011;2845;48.626;9.362;2023-09-12T07:04:45;7.18;;;3.60;;
5646;SDS011;2845;48.626;9.362;2023-09-12T07:07:19;7.22;;;3.95;;
5646;SDS011;2845;48.626;9.362;2023-09-12T07:09:55;6.55;;;3.60;;
5646;SDS011;2845;48.626;9.362;2023-09-12T07:12:49;6.85;;;3.28;;
5646;SDS011;2845;48.626;9.362;2023-09-12T07:15:24;5.95;;;3.25;;
5646;SDS011;2845;48.626;9.362;2023-09-12T07:17:59;8.05;;;3.40;;
5646;SDS011;2845;48.626;9.362;2023-09-12T07:20:33;6.65;;;3.53;;
5646;SDS011;2845;48.626;9.362;2023-09-12T07:23:08;7.68;;;3.45;;
5646;SDS011;2845;48.626;9.362;2023-09-12T07:25:43;6.78;;;3.40;;
5646;SDS011;2845;48.626;9.362;2023-09-12T07:28:17;5.60;;;3.47;;
5646;SDS011;2845;48.626;9.362;2023-09-12T07:30:53;7.35;;;4.03;;
5646;SDS011;2845;48.626;9.362;2023-09-12T07:33:28;6.15;;;3.35;;
5646;SDS011;2845;48.626;9.362;2023-09-12T07:36:04;8.25;;;3.78;;
5646;SDS011;2845;48.626;9.362;2023-09-12T07:38:38;5.85;;;3.80;;
5646;SDS011;2845;48.626;9.362;2023-09-12T07:41:16;7.70;;;3.80;;
5646;SDS011;2845;48.626;9.362;2023-09-12T07:43:52;9.10;;;3.28;;
5646;SDS011;2845;48.626;9.362;2023-09-12T07:46:27;6.03;;;3.50;;
5646;SDS011;2845;48.626;9.362;2023-09-12T07:49:02;7.60;;;3.75;;
5646;SDS011;2845;48.626;9.362;2023-09-12T07:51:36;7.15;;;4.05;;
5646;SDS011;2845;48.626;9.362;2023-09-12T07:54:10;5.43;;;3.28;;
5646;SDS011;2845;48.626;9.362;2023-09-12T07:56:46;4.70;;;3.22;;
5646;SDS011;2845;48.626;9.362;2023-09-12T07:59:20;6.75;;;4.22;;
5646;SDS011;2845;48.626;9.362;2023-09-12T08:01:56;6.25;;;3.83;;
5646;SDS011;2845;48.626;9.362;2023-09-12T08:04:30;7.75;;;4.20;;
5646;SDS011;2845;48.626;9.362;2023-09-12T08:07:07;7.00;;;4.15;;
5646;SDS011;2845;48.626;9.362;2023-09-12T08:09:47;7.13;;;4.18;;
5646;SDS011;2845;48.626;9.362;2023-09-12T08:12:26;8.27;;;4.18;;
5646;SDS011;2845;48.626;9.362;2023-09-12T08:15:01;7.97;;;4.13;;
5646;SDS011;2845;48.626;9.362;2023-09-12T08:17:36;6.75;;;4.10;;
5646;SDS011;2845;48.626;9.362;2023-09-12T08:20:12;8.65;;;4.60;;
5646;SDS011;2845;48.626;9.362;2023-09-12T08:22:46;6.80;;;4.22;;
5646;SDS011;2845;48.626;9.362;2023-09-12T08:25:21;8.65;;;4.35;;
5646;SDS011;2845;48.626;9.362;2023-09-12T08:27:58;6.65;;;4.10;;
5646;SDS011;2845;48.626;9.362;2023-09-12T08:30:32;6.80;;;3.88;;
5646;SDS011;2845;48.626;9.362;2023-09-12T08:33:07;6.65;;;4.00;;
5646;SDS011;2845;48.626;9.362;2023-09-12T08:35:42;8.45;;;4.40;;
5646;SDS011;2845;48.626;9.362;2023-09-12T08:38:16;6.93;;;4.10;;
5646;SDS011;2845;48.626;9.362;2023-09-12T08:40:51;8.60;;;4.10;;
5646;SDS011;2845;48.626;9.362;2023-09-12T08:43:27;8.40;;;4.22;;
5646;SDS011;2845;48.626;9.362;2023-09-12T08:46:02;8.10;;;4.22;;
5646;SDS011;2845;48.626;9.362;2023-09-12T08:48:39;6.32;;;4.00;;
5646;SDS011;2845;48.626;9.362;2023-09-12T08:51:16;7.03;;;4.55;;
5646;SDS011;2845;48.626;9.362;2023-09-12T08:53:51;6.45;;;4.18;;
5646;SDS011;2845;48.626;9.362;2023-09-12T08:56:25;7.28;;;4.43;;
5646;SDS011;2845;48.626;9.362;2023-09-12T08:59:04;5.93;;;4.00;;
5646;SDS011;2845;48.626;9.362;2023-09-12T09:01:40;6.72;;;4.00;;
5646;SDS011;2845;48.626;9.362;2023-09-12T09:04:15;8.70;;;4.35;;
5646;SDS011;2845;48.626;9.362;2023-09-12T09:06:52;9.07;;;5.32;;
5646;SDS011;2845;48.626;9.362;2023-09-12T09:09:27;7.15;;;4.70;;
5646;SDS011;2845;48.626;9.362;2023-09-12T09:12:06;7.40;;;4.80;;
5646;SDS011;2845;48.626;9.362;2023-09-12T09:14:42;6.45;;;4.78;;
5646;SDS011;2845;48.626;9.362;2023-09-12T09:17:17;8.63;;;4.85;;
5646;SDS011;2845;48.626;9.362;2023-09-12T09:20:07;9.02;;;4.85;;
5646;SDS011;2845;48.626;9.362;2023-09-12T09:22:45;6.68;;;4.60;;
5646;SDS011;2845;48.626;9.362;2023-09-12T09:25:31;10.05;;;4.88;;
5646;SDS011;2845;48.626;9.362;2023-09-12T09:28:16;8.00;;;4.88;;
5646;SDS011;2845;48.626;9.362;2023-09-12T09:30:53;9.15;;;5.13;;
5646;SDS011;2845;48.626;9.362;2023-09-12T09:33:29;8.18;;;4.85;;
5646;SDS011;2845;48.626;9.362;2023-09-12T09:36:09;7.55;;;4.72;;
5646;SDS011;2845;48.626;9.362;2023-09-12T09:38:43;8.98;;;5.18;;
5646;SDS011;2845;48.626;9.362;2023-09-12T09:41:19;8.02;;;4.93;;
5646;SDS011;2845;48.626;9.362;2023-09-12T09:43:55;7.65;;;4.53;;
5646;SDS011;2845;48.626;9.362;2023-09-12T09:46:30;7.90;;;4.55;;
5646;SDS011;2845;48.626;9.362;2023-09-12T09:49:09;6.70;;;4.88;;
5646;SDS011;2845;48.626;9.362;2023-09-12T09:51:44;8.23;;;4.78;;
5646;SDS011;2845;48.626;9.362;2023-09-12T09:54:19;7.47;;;5.10;;
5646;SDS011;2845;48.626;9.362;2023-09-12T09:56:57;7.05;;;4.28;;
5646;SDS011;2845;48.626;9.362;2023-09-12T09:59:32;10.45;;;5.05;;
5646;SDS011;2845;48.626;9.362;2023-09-12T10:02:11;7.38;;;4.70;;
5646;SDS011;2845;48.626;9.362;2023-09-12T10:04:54;9.00;;;5.25;;
5646;SDS011;2845;48.626;9.362;2023-09-12T10:07:35;10.18;;;5.35;;
5646;SDS011;2845;48.626;9.362;2023-09-12T10:10:11;7.53;;;5.40;;
5646;SDS011;2845;48.626;9.362;2023-09-12T10:12:48;8.63;;;5.38;;
5646;SDS011;2845;48.626;9.362;2023-09-12T10:15:25;7.63;;;5.07;;
5646;SDS011;2845;48.626;9.362;2023-09-12T10:18:07;8.77;;;5.20;;
5646;SDS011;2845;48.626;9.362;2023-09-12T10:20:48;6.57;;;4.97;;
5646;SDS011;2845;48.626;9.362;2023-09-12T10:23:27;7.55;;;4.80;;
5646;SDS011;2845;48.626;9.362;2023-09-12T10:26:15;8.23;;;5.32;;
5646;SDS011;2845;48.626;9.362;2023-09-12T10:28:51;8.70;;;4.50;;
5646;SDS011;2845;48.626;9.362;2023-09-12T10:31:27;7.85;;;5.50;;
5646;SDS011;2845;48.626;9.362;2023-09-12T10:34:03;6.68;;;4.90;;
5646;SDS011;2845;48.626;9.362;2023-09-12T10:36:42;7.35;;;5.28;;
5646;SDS011;2845;48.626;9.362;2023-09-12T10:39:19;8.77;;;5.15;;
5646;SDS011;2845;48.626;9.362;2023-09-12T10:41:56;9.60;;;4.88;;
5646;SDS011;2845;48.626;9.362;2023-09-12T10:44:34;7.00;;;5.05;;
5646;SDS011;2845;48.626;9.362;2023-09-12T10:47:08;11.15;;;5.15;;
5646;SDS011;2845;48.626;9.362;2023-09-12T10:49:45;7.50;;;4.63;;
5646;SDS011;2845;48.626;9.362;2023-09-12T10:52:23;6.32;;;4.72;;
5646;SDS011;2845;48.626;9.362;2023-09-12T10:54:58;6.20;;;4.75;;
5646;SDS011;2845;48.626;9.362;2023-09-12T10:57:34;6.05;;;4.78;;
5646;SDS011;2845;48.626;9.362;2023-09-12T11:00:11;6.40;;;4.55;;
5646;SDS011;2845;48.626;9.362;2023-09-12T11:02:53;6.88;;;5.03;;
5646;SDS011;2845;48.626;9.362;2023-09-12T11:05:40;7.13;;;5.35;;
5646;SDS011;2845;48.626;9.362;2023-09-12T11:08:26;7.55;;;5.28;;
5646;SDS011;2845;48.626;9.362;2023-09-12T11:11:17;8.40;;;5.43;;
5646;SDS011;2845;48.626;9.362;2023-09-12T11:14:02;6.63;;;4.97;;
5646;SDS011;2845;48.626;9.362;2023-09-12T11:16:37;6.95;;;4.70;;
5646;SDS011;2845;48.626;9.362;2023-09-12T11:19:12;5.80;;;4.43;;
5646;SDS011;2845;48.626;9.362;2023-09-12T11:21:53;8.85;;;5.38;;
5646;SDS011;2845;48.626;9.362;2023-09-12T11:24:31;6.90;;;4.90;;
5646;SDS011;2845;48.626;9.362;2023-09-12T11:27:19;6.75;;;4.30;;
5646;SDS011;2845;48.626;9.362;2023-09-12T11:29:54;7.13;;;4.95;;
5646;SDS011;2845;48.626;9.362;2023-09-12T11:32:38;7.13;;;4.97;;
5646;SDS011;2845;48.626;9.362;2023-09-12T11:35:13;7.38;;;4.63;;
5646;SDS011;2845;48.626;9.362;2023-09-12T11:37:50;6.78;;;4.28;;
5646;SDS011;2845;48.626;9.362;2023-09-12T11:40:41;6.72;;;4.60;;
5646;SDS011;2845;48.626;9.362;2023-09-12T11:43:20;6.55;;;4.65;;
5646;SDS011;2845;48.626;9.362;2023-09-12T11:45:57;6.68;;;4.68;;
5646;SDS011;2845;48.626;9.362;2023-09-12T11:48:32;7.22;;;4.57;;
5646;SDS011;2845;48.626;9.362;2023-09-12T11:51:11;7.63;;;4.60;;
5646;SDS011;2845;48.626;9.362;2023-09-12T11:53:48;6.32;;;4.57;;
5646;SDS011;2845;48.626;9.362;2023-09-12T11:56:25;10.05;;;5.10;;
5646;SDS011;2845;48.626;9.362;2023-09-12T11:59:00;6.45;;;4.97;;
5646;SDS011;2845;48.626;9.362;2023-09-12T12:01:39;5.70;;;4.22;;
5646;SDS011;2845;48.626;9.362;2023-09-12T12:04:14;5.90;;;4.57;;
5646;SDS011;2845;48.626;9.362;2023-09-12T12:06:49;6.00;;;4.72;;
5646;SDS011;2845;48.626;9.362;2023-09-12T12:09:26;7.30;;;4.70;;
5646;SDS011;2845;48.626;9.362;2023-09-12T12:12:08;6.50;;;4.70;;
5646;SDS011;2845;48.626;9.362;2023-09-12T12:14:44;7.13;;;4.68;;
5646;SDS011;2845;48.626;9.362;2023-09-12T12:17:19;6.65;;;4.82;;
5646;SDS011;2845;48.626;9.362;2023-09-12T12:19:53;8.77;;;4.93;;
5646;SDS011;2845;48.626;9.362;2023-09-12T12:22:28;5.97;;;4.60;;
5646;SDS011;2845;48.626;9.362;2023-09-12T12:25:06;7.45;;;4.90;;
5646;SDS011;2845;48.626;9.362;2023-09-12T12:27:43;6.75;;;4.25;;
5646;SDS011;2845;48.626;9.362;2023-09-12T12:30:18;6.28;;;4.70;;
5646;SDS011;2845;48.626;9.362;2023-09-12T12:32:53;7.32;;;4.40;;
5646;SDS011;2845;48.626;9.362;2023-09-12T12:35:45;5.57;;;4.28;;
5646;SDS011;2845;48.626;9.362;2023-09-12T12:38:33;6.45;;;4.40;;
5646;SDS011;2845;48.626;9.362;2023-09-12T12:41:32;5.47;;;3.90;;
5646;SDS011;2845;48.626;9.362;2023-09-12T12:44:25;5.55;;;4.43;;
5646;SDS011;2845;48.626;9.362;2023-09-12T12:47:09;5.82;;;4.45;;
5646;SDS011;2845;48.626;9.362;2023-09-12T12:49:45;5.85;;;4.35;;
5646;SDS011;2845;48.626;9.362;2023-09-12T12:52:24;6.55;;;4.57;;
5646;SDS011;2845;48.626;9.362;2023-09-12T12:55:03;7.00;;;4.47;;
5646;SDS011;2845;48.626;9.362;2023-09-12T12:57:40;6.25;;;4.63;;
5646;SDS011;2845;48.626;9.362;2023-09-12T13:00:16;6.25;;;4.45;;
5646;SDS011;2845;48.626;9.362;2023-09-12T13:02:54;6.97;;;4.57;;
5646;SDS011;2845;48.626;9.362;2023-09-12T13:11:20;7.28;;;4.78;;
5646;SDS011;2845;48.626;9.362;2023-09-12T13:13:57;7.50;;;4.32;;
5646;SDS011;2845;48.626;9.362;2023-09-12T13:16:31;5.65;;;4.22;;
5646;SDS011;2845;48.626;9.362;2023-09-12T13:19:06;5.65;;;4.35;;
5646;SDS011;2845;48.626;9.362;2023-09-12T13:21:41;9.65;;;5.55;;
5646;SDS011;2845;48.626;9.362;2023-09-12T13:24:15;6.35;;;4.63;;
5646;SDS011;2845;48.626;9.362;2023-09-12T13:26:50;8.30;;;4.55;;
5646;SDS011;2845;48.626;9.362;2023-09-12T13:29:26;6.32;;;4.75;;
5646;SDS011;2845;48.626;9.362;2023-09-12T13:32:03;5.57;;;4.53;;
5646;SDS011;2845;48.626;9.362;2023-09-12T13:34:39;6.30;;;4.80;;
5646;SDS011;2845;48.626;9.362;2023-09-12T13:37:13;6.68;;;5.25;;
5646;SDS011;2845;48.626;9.362;2023-09-12T13:39:51;6.18;;;4.80;;
5646;SDS011;2845;48.626;9.362;2023-09-12T13:42:26;6.65;;;5.03;;
5646;SDS011;2845;48.626;9.362;2023-09-12T13:45:05;6.50;;;5.38;;
5646;SDS011;2845;48.626;9.362;2023-09-12T13:47:43;6.25;;;4.50;;
5646;SDS011;2845;48.626;9.362;2023-09-12T13:50:17;6.13;;;4.53;;
5646;SDS011;2845;48.626;9.362;2023-09-12T13:52:53;6.63;;;4.70;;
5646;SDS011;2845;48.626;9.362;2023-09-12T13:55:28;5.88;;;4.72;;
5646;SDS011;2845;48.626;9.362;2023-09-12T13:58:03;6.53;;;5.03;;
5646;SDS011;2845;48.626;9.362;2023-09-12T14:00:40;5.85;;;4.50;;
5646;SDS011;2845;48.626;9.362;2023-09-12T14:03:16;6.78;;;4.60;;
5646;SDS011;2845;48.626;9.362;2023-09-12T14:05:51;5.30;;;4.25;;
5646;SDS011;2845;48.626;9.362;2023-09-12T14:08:26;5.88;;;4.60;;
5646;SDS011;2845;48.626;9.362;2023-09-12T14:11:01;6.43;;;4.75;;
5646;SDS011;2845;48.626;9.362;2023-09-12T14:13:40;5.28;;;4.40;;
5646;SDS011;2845;48.626;9.362;2023-09-12T14:16:21;5.28;;;4.53;;
5646;SDS011;2845;48.626;9.362;2023-09-12T14:18:56;6.43;;;4.68;;
5646;SDS011;2845;48.626;9.362;2023-09-12T14:21:31;7.13;;;5.03;;
5646;SDS011;2845;48.626;9.362;2023-09-12T14:24:07;5.78;;;4.45;;
5646;SDS011;2845;48.626;9.362;2023-09-12T14:26:42;5.63;;;4.30;;
5646;SDS011;2845;48.626;9.362;2023-09-12T14:29:17;6.55;;;4.75;;
5646;SDS011;2845;48.626;9.362;2023-09-12T14:31:53;6.10;;;4.80;;
5646;SDS011;2845;48.626;9.362;2023-09-12T14:34:30;5.07;;;3.95;;
5646;SDS011;2845;48.626;9.362;2023-09-12T14:37:05;6.28;;;4.28;;
5646;SDS011;2845;48.626;9.362;2023-09-12T14:39:40;5.95;;;4.35;;
5646;SDS011;2845;48.626;9.362;2023-09-12T14:42:14;6.50;;;4.45;;
5646;SDS011;2845;48.626;9.362;2023-09-12T14:44:49;4.95;;;4.05;;
5646;SDS011;2845;48.626;9.362;2023-09-12T14:47:25;6.30;;;4.40;;
5646;SDS011;2845;48.626;9.362;2023-09-12T14:50:02;4.57;;;3.80;;
5646;SDS011;2845;48.626;9.362;2023-09-12T14:52:38;5.38;;;3.85;;
5646;SDS011;2845;48.626;9.362;2023-09-12T14:55:14;5.35;;;4.20;;
5646;SDS011;2845;48.626;9.362;2023-09-12T14:57:49;4.93;;;3.95;;
5646;SDS011;2845;48.626;9.362;2023-09-12T15:00:25;5.47;;;4.10;;
5646;SDS011;2845;48.626;9.362;2023-09-12T15:03:03;5.57;;;4.15;;
5646;SDS011;2845;48.626;9.362;2023-09-12T15:05:38;6.75;;;4.38;;
5646;SDS011;2845;48.626;9.362;2023-09-12T15:08:15;4.75;;;3.55;;
5646;SDS011;2845;48.626;9.362;2023-09-12T15:10:50;5.50;;;4.05;;
5646;SDS011;2845;48.626;9.362;2023-09-12T15:13:24;5.18;;;4.05;;
5646;SDS011;2845;48.626;9.362;2023-09-12T15:15:59;8.48;;;4.57;;
5646;SDS011;2845;48.626;9.362;2023-09-12T15:18:38;5.72;;;4.22;;
5646;SDS011;2845;48.626;9.362;2023-09-12T15:21:15;5.55;;;4.07;;
5646;SDS011;2845;48.626;9.362;2023-09-12T15:23:49;7.43;;;4.57;;
5646;SDS011;2845;48.626;9.362;2023-09-12T15:26:25;6.50;;;3.90;;
5646;SDS011;2845;48.626;9.362;2023-09-12T15:28:59;5.28;;;3.97;;
5646;SDS011;2845;48.626;9.362;2023-09-12T15:31:36;6.30;;;4.25;;
5646;SDS011;2845;48.626;9.362;2023-09-12T15:34:14;6.45;;;4.50;;
5646;SDS011;2845;48.626;9.362;2023-09-12T15:36:49;5.82;;;3.80;;
5646;SDS011;2845;48.626;9.362;2023-09-12T15:39:53;5.80;;;3.92;;
5646;SDS011;2845;48.626;9.362;2023-09-12T15:42:28;5.80;;;3.60;;
5646;SDS011;2845;48.626;9.362;2023-09-12T15:45:09;6.00;;;4.00;;
5646;SDS011;2845;48.626;9.362;2023-09-12T15:47:44;5.18;;;4.07;;
5646;SDS011;2845;48.626;9.362;2023-09-12T15:50:21;6.45;;;4.25;;
5646;SDS011;2845;48.626;9.362;2023-09-12T15:52:56;8.48;;;5.03;;
5646;SDS011;2845;48.626;9.362;2023-09-12T15:55:31;7.07;;;4.70;;
5646;SDS011;2845;48.626;9.362;2023-09-12T15:58:05;6.20;;;4.18;;
5646;SDS011;2845;48.626;9.362;2023-09-12T16:00:40;5.95;;;4.18;;
5646;SDS011;2845;48.626;9.362;2023-09-12T16:03:16;5.00;;;3.88;;
5646;SDS011;2845;48.626;9.362;2023-09-12T16:05:52;6.20;;;3.72;;
5646;SDS011;2845;48.626;9.362;2023-09-12T16:08:26;5.43;;;4.00;;
5646;SDS011;2845;48.626;9.362;2023-09-12T16:11:01;8.32;;;4.43;;
5646;SDS011;2845;48.626;9.362;2023-09-12T16:13:35;7.82;;;4.47;;
5646;SDS011;2845;48.626;9.362;2023-09-12T16:16:09;6.82;;;4.25;;
5646;SDS011;2845;48.626;9.362;2023-09-12T16:18:44;5.63;;;4.22;;
5646;SDS011;2845;48.626;9.362;2023-09-12T16:21:21;7.20;;;4.05;;
5646;SDS011;2845;48.626;9.362;2023-09-12T16:23:58;6.60;;;4.10;;